createdAt,value
2019-02-10T00:03:33.965Z,19.40
2019-02-10T00:08:37.579Z,20.10
2019-02-10T00:13:40.965Z,20.70
2019-02-10T00:18:44.396Z,21.20
2019-02-10T00:23:47.712Z,21.50
2019-02-10T00:28:51.083Z,21.70
2019-02-10T00:33:54.455Z,21.80
2019-02-10T00:38:57.973Z,21.80
2019-02-10T00:44:01.276Z,21.90
2019-02-10T00:49:04.739Z,22.00
2019-02-10T00:54:09.011Z,21.90
2019-02-10T00:59:12.324Z,22.00
2019-02-10T01:04:15.703Z,22.00
2019-02-10T01:09:19.482Z,22.00
2019-02-10T01:14:22.880Z,22.00
2019-02-10T01:19:26.999Z,22.00
2019-02-10T01:24:30.591Z,22.10
2019-02-10T01:29:34.012Z,22.00
2019-02-10T01:34:38.558Z,22.00
2019-02-10T01:39:41.895Z,22.00
2019-02-10T01:44:45.316Z,22.00
2019-02-10T01:49:48.807Z,22.00
2019-02-10T01:54:52.247Z,22.00
2019-02-10T01:59:56.045Z,22.00
2019-02-10T02:04:59.471Z,22.00
2019-02-10T02:10:02.783Z,22.00
2019-02-10T02:15:10.132Z,22.00
2019-02-10T02:20:13.812Z,22.00
2019-02-10T02:25:17.288Z,22.00
2019-02-10T02:30:20.708Z,22.00
2019-02-10T02:35:24.213Z,22.00
2019-02-10T02:40:27.515Z,22.00
2019-02-10T02:45:30.821Z,22.00
2019-02-10T02:50:37.315Z,22.00
2019-02-10T02:55:40.620Z,22.00
2019-02-10T03:00:43.921Z,22.00
2019-02-10T03:05:47.220Z,22.00
2019-02-10T03:10:51.891Z,22.00
2019-02-10T03:15:55.871Z,22.00
2019-02-10T03:20:59.342Z,22.00
2019-02-10T03:26:02.780Z,22.00
2019-02-10T03:31:06.977Z,22.00
2019-02-10T03:36:11.178Z,22.00
2019-02-10T03:41:14.551Z,22.00
2019-02-10T03:46:19.480Z,22.00
2019-02-10T03:51:22.904Z,22.00
2019-02-10T03:56:27.597Z,22.00
2019-02-10T04:01:30.884Z,22.00
2019-02-10T04:06:34.300Z,22.00
2019-02-10T04:11:38.777Z,22.00
2019-02-10T04:16:42.225Z,22.00
2019-02-10T04:21:48.375Z,22.00
2019-02-10T04:26:52.247Z,22.00
2019-02-10T04:31:55.754Z,22.00
2019-02-10T04:36:59.132Z,22.00
2019-02-10T04:42:03.722Z,22.00
2019-02-10T04:47:07.207Z,22.00
2019-02-10T04:52:10.619Z,22.00
2019-02-10T04:57:14.053Z,22.00
2019-02-10T05:02:17.548Z,22.00
2019-02-10T05:07:20.972Z,22.00
2019-02-10T05:12:24.787Z,22.00
2019-02-10T05:17:28.230Z,22.00
2019-02-10T05:22:31.528Z,22.00
2019-02-10T05:27:35.471Z,22.00
2019-02-10T05:32:38.776Z,22.00
2019-02-10T05:37:43.601Z,22.00
2019-02-10T05:42:48.560Z,22.00
2019-02-10T05:47:52.069Z,21.90
2019-02-10T05:52:55.500Z,21.90
2019-02-10T05:57:59.281Z,22.00
2019-02-10T06:03:03.036Z,21.90
2019-02-10T06:08:12.873Z,21.90
2019-02-10T06:13:11.489Z,21.90
2019-02-10T06:18:14.801Z,21.90
2019-02-10T06:23:18.425Z,21.90
2019-02-10T06:28:21.940Z,22.00
2019-02-10T06:33:27.092Z,22.00
2019-02-10T06:38:30.656Z,22.00
2019-02-10T06:43:35.007Z,22.00
2019-02-10T06:48:38.502Z,22.00
2019-02-10T06:53:41.829Z,22.00
2019-02-10T06:58:45.304Z,22.10
2019-02-10T07:03:53.770Z,22.10
2019-02-10T07:08:57.645Z,22.10
2019-02-10T07:14:01.195Z,22.00
2019-02-10T07:19:43.122Z,22.10
2019-02-10T07:25:01.968Z,22.10
2019-02-10T07:30:08.674Z,22.20
2019-02-10T07:35:26.923Z,22.20
2019-02-10T07:40:51.415Z,22.20
2019-02-10T07:46:00.860Z,22.20
2019-02-10T07:51:24.491Z,22.20
2019-02-10T07:56:55.227Z,22.30
2019-02-10T08:02:16.507Z,22.40
2019-02-10T08:07:28.876Z,22.40
2019-02-10T08:12:44.192Z,22.40
2019-02-10T08:17:59.839Z,22.60
2019-02-10T08:23:18.211Z,22.80
2019-02-10T08:28:45.867Z,23.10
2019-02-10T08:34:00.984Z,23.30
2019-02-10T08:39:27.693Z,23.60
2019-02-10T08:44:40.257Z,24.00
2019-02-10T08:50:07.948Z,24.30
2019-02-10T08:55:12.835Z,24.60
2019-02-10T09:00:16.450Z,24.70
2019-02-10T09:05:19.817Z,24.90
2019-02-10T09:10:23.563Z,25.10
2019-02-10T09:15:27.255Z,25.40
2019-02-10T09:20:30.591Z,25.60
2019-02-10T09:25:34.990Z,25.70
2019-02-10T09:30:38.481Z,25.70
2019-02-10T09:35:41.910Z,25.90
2019-02-10T09:40:45.687Z,26.00
2019-02-10T09:45:49.007Z,26.20
2019-02-10T09:50:52.432Z,26.30
2019-02-10T09:55:56.673Z,26.50
2019-02-10T10:01:00.043Z,26.60
2019-02-10T10:06:03.478Z,26.70
2019-02-10T10:11:06.901Z,26.70
2019-02-10T10:16:10.512Z,26.70
2019-02-10T10:21:14.031Z,26.70
2019-02-10T10:26:17.344Z,26.70
2019-02-10T10:31:20.767Z,26.70
2019-02-10T10:36:26.212Z,26.60
2019-02-10T10:41:29.430Z,26.50
2019-02-10T10:46:32.736Z,26.40
2019-02-10T10:51:36.987Z,26.20
2019-02-10T10:56:40.549Z,26.00
2019-02-10T11:01:44.204Z,25.80
2019-02-10T11:06:48.031Z,25.70
2019-02-10T11:11:53.026Z,25.60
2019-02-10T11:16:56.548Z,25.40
2019-02-10T11:22:01.344Z,25.20
2019-02-10T11:27:04.726Z,25.00
2019-02-10T11:32:08.067Z,25.00
2019-02-10T11:37:11.498Z,24.90
2019-02-10T11:42:14.920Z,24.80
2019-02-10T11:47:19.334Z,24.70
2019-02-10T11:52:23.687Z,24.60
2019-02-10T11:57:28.207Z,24.50
2019-02-10T12:02:37.817Z,24.50
2019-02-10T12:07:36.684Z,24.40
2019-02-10T12:12:40.499Z,24.40
2019-02-10T12:17:43.881Z,24.70
2019-02-10T12:22:50.295Z,24.90
2019-02-10T12:27:52.308Z,24.70
2019-02-10T12:32:55.728Z,24.70
2019-02-10T12:37:59.050Z,24.90
2019-02-10T12:43:02.440Z,25.00
2019-02-10T12:48:05.860Z,24.90
2019-02-10T12:53:10.230Z,24.60
2019-02-10T12:58:14.857Z,24.40
2019-02-10T13:03:18.348Z,24.20
2019-02-10T13:08:21.719Z,24.10
2019-02-10T13:13:25.613Z,24.00
2019-02-10T13:18:29.251Z,23.90
2019-02-10T13:23:33.750Z,23.80
2019-02-10T13:28:39.128Z,23.80
2019-02-10T13:33:42.938Z,23.70
2019-02-10T13:38:46.340Z,23.50
2019-02-10T13:43:49.755Z,23.40
2019-02-10T13:48:54.531Z,23.50
2019-02-10T13:53:57.847Z,23.50
2019-02-10T13:59:01.230Z,23.60
2019-02-10T14:04:05.297Z,23.60
2019-02-10T14:09:09.336Z,23.70
2019-02-10T14:14:12.712Z,23.70
2019-02-10T14:19:16.400Z,23.70
2019-02-10T14:24:20.533Z,23.80
2019-02-10T14:29:23.836Z,23.80
2019-02-10T14:34:27.229Z,23.70
2019-02-10T14:39:30.607Z,23.70
2019-02-10T14:44:33.915Z,23.60
2019-02-10T14:49:37.215Z,23.50
2019-02-10T14:54:40.527Z,23.50
2019-02-10T14:59:44.315Z,23.40
2019-02-10T15:04:47.619Z,23.30
2019-02-10T15:09:51.042Z,23.20
2019-02-10T15:14:54.375Z,23.20
2019-02-10T15:19:57.679Z,23.10
2019-02-10T15:25:00.982Z,23.10
2019-02-10T15:30:06.659Z,23.20
2019-02-10T15:35:10.037Z,23.20
2019-02-10T15:40:15.249Z,23.20
2019-02-10T15:45:19.286Z,23.20
2019-02-10T15:50:23.779Z,23.10
2019-02-10T15:55:27.811Z,23.10
2019-02-10T16:00:31.901Z,23.10
2019-02-10T16:05:35.203Z,23.10
2019-02-10T16:10:38.504Z,23.00
2019-02-10T16:15:41.814Z,22.80
2019-02-10T16:20:45.115Z,22.80
2019-02-10T16:25:48.423Z,22.90
2019-02-10T16:30:51.728Z,22.80
2019-02-10T16:35:55.094Z,22.90
2019-02-10T16:41:05.908Z,22.90
2019-02-10T16:46:03.428Z,22.90
2019-02-10T16:51:06.734Z,22.90
2019-02-10T16:56:13.264Z,22.90
2019-02-10T17:01:17.812Z,22.90
2019-02-10T17:06:21.123Z,22.90
2019-02-10T17:11:27.408Z,22.90
2019-02-10T17:16:30.706Z,22.80
2019-02-10T17:21:34.836Z,22.90
2019-02-10T17:26:38.620Z,22.90
2019-02-10T17:31:42.208Z,22.90
2019-02-10T17:36:45.514Z,22.90
2019-02-10T17:41:48.791Z,22.90
2019-02-10T17:46:52.917Z,23.00
2019-02-10T17:51:56.675Z,23.00
2019-02-10T17:56:59.972Z,23.00
2019-02-10T18:02:04.682Z,23.00
2019-02-10T18:07:09.614Z,23.00
2019-02-10T18:12:13.068Z,23.00
2019-02-10T18:17:20.999Z,23.00
2019-02-10T18:22:27.347Z,22.90
2019-02-10T18:27:35.397Z,22.90
2019-02-10T18:32:58.796Z,22.90
2019-02-10T18:38:03.812Z,22.90
2019-02-10T18:43:14.492Z,22.90
2019-02-10T18:48:22.145Z,22.90
2019-02-10T18:53:33.235Z,22.90
2019-02-10T18:58:40.957Z,23.00
2019-02-10T19:03:52.087Z,23.00
2019-02-10T19:09:04.058Z,23.00
2019-02-10T19:14:11.626Z,23.00
2019-02-10T19:19:18.023Z,23.00
2019-02-10T19:24:25.807Z,22.90
2019-02-10T19:29:39.975Z,22.90
2019-02-10T19:34:47.882Z,22.90
2019-02-10T19:39:52.900Z,22.90
2019-02-10T19:45:06.843Z,23.00
2019-02-10T19:50:15.495Z,23.00
2019-02-10T19:55:26.434Z,22.90
2019-02-10T20:00:34.343Z,22.90
2019-02-10T20:05:45.817Z,22.90
2019-02-10T20:10:50.831Z,22.90
2019-02-10T20:16:02.163Z,22.80
2019-02-10T20:21:13.026Z,22.80
2019-02-10T20:26:20.788Z,22.80
2019-02-10T20:31:31.677Z,22.70
2019-02-10T20:36:39.059Z,22.80
2019-02-10T20:41:52.943Z,22.70
2019-02-10T20:47:00.931Z,22.70
2019-02-10T20:52:22.118Z,22.70
2019-02-10T20:57:30.087Z,22.80
2019-02-10T21:02:37.829Z,22.80
2019-02-10T21:07:45.504Z,22.80
2019-02-10T21:12:50.456Z,22.80
2019-02-10T21:18:01.229Z,22.80
2019-02-10T21:23:15.556Z,22.80
2019-02-10T21:28:23.712Z,22.80
2019-02-10T21:33:29.129Z,22.80
2019-02-10T21:38:43.063Z,22.70
2019-02-10T21:44:03.246Z,22.70
2019-02-10T21:49:06.596Z,22.70
2019-02-10T21:54:09.909Z,22.70
2019-02-10T21:59:13.285Z,22.70
2019-02-10T22:04:16.591Z,22.70
2019-02-10T22:09:19.945Z,22.70
2019-02-10T22:14:23.290Z,22.80
2019-02-10T22:19:27.157Z,22.80
2019-02-10T22:24:30.580Z,22.80
2019-02-10T22:29:33.896Z,22.80
2019-02-10T22:34:37.271Z,22.90
2019-02-10T22:39:40.577Z,22.90
2019-02-10T22:44:43.884Z,22.90
2019-02-10T22:49:47.192Z,22.80
2019-02-10T22:54:50.574Z,22.80
2019-02-10T22:59:54.896Z,22.70
2019-02-10T23:04:58.214Z,22.80
2019-02-10T23:10:01.592Z,22.70
2019-02-10T23:15:05.871Z,22.70
2019-02-10T23:20:09.179Z,22.70
2019-02-10T23:25:12.520Z,22.60
2019-02-10T23:30:16.440Z,22.60
2019-02-10T23:35:19.804Z,22.60
2019-02-10T23:40:23.183Z,22.60
2019-02-10T23:45:26.608Z,22.60
2019-02-10T23:50:30.787Z,22.50
2019-02-10T23:55:34.108Z,22.50
